Capitol Logistics 315


KMCI
Kansas City International Airport
Kansas City, Missouri, US
KLAX
Los Angeles International Airport
Los Angeles, California, US

Activity Log

Date Flight Route Aircraft Duration
05/10/2020 CPX315 WL5 SLN KD45W ALS TBC JASSE Q90 DNERO ANJLL4 B752 3h 46m
03/14/2020 CPX315 WL5 KENTN SLN J102 ALS J110 RSK J64 TBC J128 PGS DNERO BIGBR3 B763 3h 33m
07/18/2019 CPX315 KMCI/19R SLN KD45W ALS TBC JASSE Q90 DNERO ANJLL4 KLAX/25L B763 2h 54m

Route Details

Aircraft Information
Primary: Boeing 767-300BDSF
Backup: Boeing 757-200SF
Route Data
Distance: 1184nm
Sched. Duration: 3h 29m
Avg. Duration: 3h 10m (-19m)
Times Flown: 3
Recm'd Route: WL5 SLN KD45W ALS TBC JASSE Q90 DNERO ANJLL4
Planned Altitude: 34,000ft
Origin Wx: KMCI 061153Z 11005KT 6SM HZ SCT150 24/21 A2999 RMK AO2 SLP142 T02390206 10261 20222 53005
Dest. Wx: KLAX 061153Z 09003KT 6SM BCFG BR FEW000 FEW003 SCT070 18/16 A2983 RMK AO2 SLP097 FG FEW000 FU SCT070 FG BANK S-W T01780156 10200 20178 55003
Notes: METROAIR CARGO SUPPORT

Financial History
Total Freight: 227,647lbs
Average Load: 75,882lbs/flt
Fuel Used: 95,581lbs
Avg. Fuel Used: 31,860lbs/flt
Fuel Expense: $105,139
Avg. Fuel Expense: $35,046
Avg. Fuel Cost: $1.10/lbs
Total Gross Income: $332,147
Pilot Pay: $377
Total Expenses: $36,028
Total Revenue: $189,087
Average Revenue: $110,715.57